Pagina principală
METAR-TAF:

METAR-TAF

Aeroporturi :

Cúcuta, Columbia

Latitudine: 07-56N, longitudine: 072-31W, elevație: 250 m

Observații meteo curente

Raportul a fost făcut în urmă cu 40 de minute, la 16:00 UTC
Vânt 20 kt de la Sud cu rafale de până la 31 kt
Temperatură 32°C
Umiditate 46%
Presiune 1013 hPa
Vizibilitate de 10 km sau mai mult
Nori puțini la o înălțime de 2300 picior

METAR: SKCC 171600Z 17020G31KT 9999 FEW023 32/19 Q1013

Ora: 11:40 (16:40 UTC)

Prognoză

Raportul a fost făcut în urmă cu 6 ore și 10 de minute, la 10:30 UTC
Prognoză valabilă de la 17 ora 12 UTC la 18 ora 12 UTC
Vânt 19 kt de la Sud/Sud-est
Vizibilitate de 10 km sau mai mult
Nori împrăștiați la o înălțime de 2000 picior

TAF: SKCC 171030Z 1712/1812 16019KT 9999 SCT020 TX35/1719Z TN27/1811Z

Observații și prognoze meteo pentru peste 4.000 de aeroporturi (rapoarte METAR și TAF).

Stațiile disponibile sunt reprezentate pe hartă prin puncte galbene și roșii.

Țineți indicatorul mouse-ului pe punctul dorit pentru a vedea denumirea stației.

Apoi, faceți clic pentru a vedea observațiile și prognozele meteorologice.

Pentru a schimba harta: Pentru mărire, faceți clic pe butoanele verzi cu cruce neagră; pentru micșorare, pe butonul verde cu o liniuță; pentru hărți învecinate, pe săgețile verzi.


METAR-TAF: